Ana Sayfa
METAR-TAF:

METAR-TAF

Havaalanları :

William H. Morse State Airport

Bennington, Vermont, Amerika Birleşik Devletleri

Enlem: 42-53-24N, Boylam: 073-14-47W, yükseklik: 252 m

Güncel hava durumu gözlemi

Rapor saat 11:54 UTC de 58 dakika önce yapıldı.
Sakin rüzgar
Sıcaklık 19°C
Nem 83%
Basınç 1017 hPa
Görüş mesafesi: 16.1 km
Açık gökyüzü

METAR: KDDH 261154Z AUTO 00000KT 10SM CLR 19/16 A3004 RMK AO2 SLP169 70032 T01940161 10194 20128 53012

Saat: 08:52 (12:52 UTC)


TAF: eksik

4.000'den fazla havaalanı için hava durumu gözlemleri ve tahminleri (METAR ve TAF raporları).

Kullanılabilir istasyonlar harita üzerinde sarı ve kırmızı noktalarla gösterilir.

İstasyonun adını görmek için fareyi noktanın üzerinde gezdirin.

Sonrasında hava gözlem ve tahminlerini görmek için tıklayın.

Haritayı değiştirmek için: yaklaştırmak için siyah artı işaretli yeşil düğmeye ve uzaklaştırmak için de eksi işaretli düğmeye hızla tıklayın; bitişik haritalar için yeşil okları kullanın.


METAR-TAF: